sensor_id;sensor_type;location;lat;lon;timestamp;pressure;altitude;pressure_sealevel;temperature;humidity
13058;BME280;6595;49.578;11.012;2023-05-23T00:00:24;985.648;;;18.15;66.9
13058;BME280;6595;49.578;11.012;2023-05-23T00:02:23;985.648;;;18.15;66.9
13058;BME280;6595;49.578;11.012;2023-05-23T00:04:23;985.514;;;18.07;67.3
13058;BME280;6595;49.578;11.012;2023-05-23T00:06:24;985.587;;;18.04;67.4
13058;BME280;6595;49.578;11.012;2023-05-23T00:08:24;985.552;;;18.00;67.6
13058;BME280;6595;49.578;11.012;2023-05-23T00:10:23;985.521;;;17.91;68.0
13058;BME280;6595;49.578;11.012;2023-05-23T00:12:24;985.613;;;17.89;68.1
13058;BME280;6595;49.578;11.012;2023-05-23T00:14:23;985.536;;;17.89;68.0
13058;BME280;6595;49.578;11.012;2023-05-23T00:16:24;985.617;;;17.90;68.0
13058;BME280;6595;49.578;11.012;2023-05-23T00:18:23;985.552;;;17.91;67.9
13058;BME280;6595;49.578;11.012;2023-05-23T00:20:23;985.556;;;17.91;67.9
13058;BME280;6595;49.578;11.012;2023-05-23T00:22:24;985.627;;;17.91;68.1
13058;BME280;6595;49.578;11.012;2023-05-23T00:24:23;985.621;;;17.90;68.1
13058;BME280;6595;49.578;11.012;2023-05-23T00:26:23;985.579;;;17.89;68.1
13058;BME280;6595;49.578;11.012;2023-05-23T00:28:24;985.659;;;17.86;68.3
13058;BME280;6595;49.578;11.012;2023-05-23T00:30:23;985.683;;;17.83;68.3
13058;BME280;6595;49.578;11.012;2023-05-23T00:32:23;985.688;;;17.83;68.4
13058;BME280;6595;49.578;11.012;2023-05-23T00:34:23;985.738;;;17.83;68.5
13058;BME280;6595;49.578;11.012;2023-05-23T00:36:24;985.722;;;17.79;68.5
13058;BME280;6595;49.578;11.012;2023-05-23T00:38:23;985.729;;;17.80;68.5
13058;BME280;6595;49.578;11.012;2023-05-23T00:40:24;985.796;;;17.87;68.4
13058;BME280;6595;49.578;11.012;2023-05-23T00:42:23;985.821;;;17.84;68.6
13058;BME280;6595;49.578;11.012;2023-05-23T00:44:23;985.769;;;17.80;68.9
13058;BME280;6595;49.578;11.012;2023-05-23T00:46:24;985.795;;;17.80;69.1
13058;BME280;6595;49.578;11.012;2023-05-23T00:48:24;985.842;;;17.81;69.0
13058;BME280;6595;49.578;11.012;2023-05-23T00:50:24;985.824;;;17.81;69.2
13058;BME280;6595;49.578;11.012;2023-05-23T00:52:24;985.912;;;17.80;69.2
13058;BME280;6595;49.578;11.012;2023-05-23T00:54:25;985.826;;;17.79;69.6
13058;BME280;6595;49.578;11.012;2023-05-23T00:56:24;985.877;;;17.74;69.7
13058;BME280;6595;49.578;11.012;2023-05-23T00:58:23;985.881;;;17.74;69.9
13058;BME280;6595;49.578;11.012;2023-05-23T01:00:24;985.898;;;17.74;70.1
13058;BME280;6595;49.578;11.012;2023-05-23T01:02:24;985.879;;;17.72;70.3
13058;BME280;6595;49.578;11.012;2023-05-23T01:04:24;985.778;;;17.73;70.6
13058;BME280;6595;49.578;11.012;2023-05-23T01:06:24;985.821;;;17.72;71.0
13058;BME280;6595;49.578;11.012;2023-05-23T01:08:24;985.821;;;17.72;71.0
13058;BME280;6595;49.578;11.012;2023-05-23T01:10:24;985.716;;;17.73;71.0
13058;BME280;6595;49.578;11.012;2023-05-23T01:12:29;985.777;;;17.69;71.3
13058;BME280;6595;49.578;11.012;2023-05-23T01:14:41;985.783;;;17.65;71.6
13058;BME280;6595;49.578;11.012;2023-05-23T01:16:32;985.822;;;17.66;71.6
13058;BME280;6595;49.578;11.012;2023-05-23T01:18:27;985.758;;;17.67;71.7
13058;BME280;6595;49.578;11.012;2023-05-23T01:20:27;985.782;;;17.63;71.8
13058;BME280;6595;49.578;11.012;2023-05-23T01:22:36;985.798;;;17.60;72.1
13058;BME280;6595;49.578;11.012;2023-05-23T01:24:33;985.761;;;17.56;72.2
13058;BME280;6595;49.578;11.012;2023-05-23T01:26:30;985.708;;;17.56;72.3
13058;BME280;6595;49.578;11.012;2023-05-23T01:28:27;985.671;;;17.54;72.4
13058;BME280;6595;49.578;11.012;2023-05-23T01:30:24;985.683;;;17.52;72.5
13058;BME280;6595;49.578;11.012;2023-05-23T01:32:24;985.721;;;17.49;72.7
13058;BME280;6595;49.578;11.012;2023-05-23T01:34:23;985.669;;;17.45;72.8
13058;BME280;6595;49.578;11.012;2023-05-23T01:36:24;985.709;;;17.42;73.1
13058;BME280;6595;49.578;11.012;2023-05-23T01:38:23;985.659;;;17.37;73.4
13058;BME280;6595;49.578;11.012;2023-05-23T01:40:24;985.707;;;17.35;73.6
13058;BME280;6595;49.578;11.012;2023-05-23T01:42:24;985.693;;;17.32;73.6
13058;BME280;6595;49.578;11.012;2023-05-23T01:44:23;985.766;;;17.30;73.7
13058;BME280;6595;49.578;11.012;2023-05-23T01:46:24;985.716;;;17.30;73.8
13058;BME280;6595;49.578;11.012;2023-05-23T01:48:24;985.699;;;17.25;73.9
13058;BME280;6595;49.578;11.012;2023-05-23T01:50:23;985.732;;;17.21;74.1
13058;BME280;6595;49.578;11.012;2023-05-23T01:52:24;985.729;;;17.21;74.2
13058;BME280;6595;49.578;11.012;2023-05-23T01:54:23;985.783;;;17.15;74.5
13058;BME280;6595;49.578;11.012;2023-05-23T01:56:23;985.783;;;17.15;74.5
13058;BME280;6595;49.578;11.012;2023-05-23T01:58:24;985.709;;;17.04;74.8
13058;BME280;6595;49.578;11.012;2023-05-23T02:00:23;985.694;;;17.08;74.9
13058;BME280;6595;49.578;11.012;2023-05-23T02:02:23;985.682;;;17.02;75.0
13058;BME280;6595;49.578;11.012;2023-05-23T02:04:24;985.780;;;17.01;75.1
13058;BME280;6595;49.578;11.012;2023-05-23T02:06:23;985.780;;;17.01;75.1
13058;BME280;6595;49.578;11.012;2023-05-23T02:08:23;985.676;;;16.96;75.2
13058;BME280;6595;49.578;11.012;2023-05-23T02:10:24;985.705;;;16.96;75.3
13058;BME280;6595;49.578;11.012;2023-05-23T02:12:23;985.736;;;16.96;75.3
13058;BME280;6595;49.578;11.012;2023-05-23T02:14:24;985.699;;;16.96;75.3
13058;BME280;6595;49.578;11.012;2023-05-23T02:16:23;985.694;;;16.92;75.4
13058;BME280;6595;49.578;11.012;2023-05-23T02:18:24;985.683;;;16.88;75.5
13058;BME280;6595;49.578;11.012;2023-05-23T02:20:24;985.673;;;16.82;75.8
13058;BME280;6595;49.578;11.012;2023-05-23T02:22:24;985.603;;;16.84;75.8
13058;BME280;6595;49.578;11.012;2023-05-23T02:24:23;985.636;;;16.91;75.7
13058;BME280;6595;49.578;11.012;2023-05-23T02:26:24;985.642;;;16.82;75.7
13058;BME280;6595;49.578;11.012;2023-05-23T02:28:23;985.637;;;16.82;75.8
13058;BME280;6595;49.578;11.012;2023-05-23T02:30:24;985.833;;;16.81;76.0
13058;BME280;6595;49.578;11.012;2023-05-23T02:32:23;985.791;;;16.81;76.1
13058;BME280;6595;49.578;11.012;2023-05-23T02:34:23;985.769;;;16.75;76.1
13058;BME280;6595;49.578;11.012;2023-05-23T02:36:24;985.808;;;16.74;76.2
13058;BME280;6595;49.578;11.012;2023-05-23T02:38:23;985.818;;;16.67;76.5
13058;BME280;6595;49.578;11.012;2023-05-23T02:40:23;985.872;;;16.68;76.6
13058;BME280;6595;49.578;11.012;2023-05-23T02:42:24;985.819;;;16.60;76.8
13058;BME280;6595;49.578;11.012;2023-05-23T02:44:23;985.893;;;16.57;77.0
13058;BME280;6595;49.578;11.012;2023-05-23T02:46:24;985.859;;;16.55;77.0
13058;BME280;6595;49.578;11.012;2023-05-23T02:48:23;985.890;;;16.51;77.3
13058;BME280;6595;49.578;11.012;2023-05-23T02:50:23;985.900;;;16.48;77.4
13058;BME280;6595;49.578;11.012;2023-05-23T02:52:24;985.956;;;16.45;77.5
13058;BME280;6595;49.578;11.012;2023-05-23T02:54:23;985.948;;;16.40;77.7
13058;BME280;6595;49.578;11.012;2023-05-23T02:56:24;985.902;;;16.37;77.7
13058;BME280;6595;49.578;11.012;2023-05-23T02:58:23;985.946;;;16.40;77.9
13058;BME280;6595;49.578;11.012;2023-05-23T03:00:23;985.916;;;16.37;77.8
13058;BME280;6595;49.578;11.012;2023-05-23T03:02:24;986.013;;;16.37;77.9
13058;BME280;6595;49.578;11.012;2023-05-23T03:04:23;985.997;;;16.31;78.1
13058;BME280;6595;49.578;11.012;2023-05-23T03:06:23;985.978;;;16.31;78.1
13058;BME280;6595;49.578;11.012;2023-05-23T03:08:24;985.960;;;16.32;78.0
13058;BME280;6595;49.578;11.012;2023-05-23T03:10:23;986.005;;;16.35;78.0
13058;BME280;6595;49.578;11.012;2023-05-23T03:12:24;985.891;;;16.27;78.3
13058;BME280;6595;49.578;11.012;2023-05-23T03:14:23;986.037;;;16.30;78.3
13058;BME280;6595;49.578;11.012;2023-05-23T03:16:24;985.984;;;16.27;78.4
13058;BME280;6595;49.578;11.012;2023-05-23T03:18:23;985.969;;;16.25;78.5
13058;BME280;6595;49.578;11.012;2023-05-23T03:20:23;986.066;;;16.23;78.6
13058;BME280;6595;49.578;11.012;2023-05-23T03:22:24;986.060;;;16.21;78.7
13058;BME280;6595;49.578;11.012;2023-05-23T03:24:23;986.001;;;16.23;78.6
13058;BME280;6595;49.578;11.012;2023-05-23T03:26:23;986.077;;;16.23;78.6
13058;BME280;6595;49.578;11.012;2023-05-23T03:28:23;986.130;;;16.24;78.6
13058;BME280;6595;49.578;11.012;2023-05-23T03:30:23;986.219;;;16.23;78.8
13058;BME280;6595;49.578;11.012;2023-05-23T03:32:24;986.233;;;16.24;78.8
13058;BME280;6595;49.578;11.012;2023-05-23T03:34:23;986.217;;;16.23;78.9
13058;BME280;6595;49.578;11.012;2023-05-23T03:36:23;986.292;;;16.24;78.9
13058;BME280;6595;49.578;11.012;2023-05-23T03:38:24;986.292;;;16.24;78.9
13058;BME280;6595;49.578;11.012;2023-05-23T03:40:23;986.240;;;16.25;78.9
13058;BME280;6595;49.578;11.012;2023-05-23T03:42:24;986.341;;;16.21;79.0
13058;BME280;6595;49.578;11.012;2023-05-23T03:44:23;986.349;;;16.24;78.9
13058;BME280;6595;49.578;11.012;2023-05-23T03:46:23;986.253;;;16.20;79.1
13058;BME280;6595;49.578;11.012;2023-05-23T03:48:24;986.263;;;16.17;79.2
13058;BME280;6595;49.578;11.012;2023-05-23T03:50:23;986.350;;;16.20;79.3
13058;BME280;6595;49.578;11.012;2023-05-23T03:52:24;986.391;;;16.21;79.2
13058;BME280;6595;49.578;11.012;2023-05-23T03:54:23;986.333;;;16.23;79.2
13058;BME280;6595;49.578;11.012;2023-05-23T03:56:24;986.306;;;16.18;79.5
13058;BME280;6595;49.578;11.012;2023-05-23T03:58:23;986.253;;;16.17;79.4
13058;BME280;6595;49.578;11.012;2023-05-23T04:00:23;986.319;;;16.21;79.3
13058;BME280;6595;49.578;11.012;2023-05-23T04:02:24;986.270;;;16.30;79.2
13058;BME280;6595;49.578;11.012;2023-05-23T04:04:23;986.339;;;16.28;79.2
13058;BME280;6595;49.578;11.012;2023-05-23T04:06:23;986.320;;;16.23;79.5
13058;BME280;6595;49.578;11.012;2023-05-23T04:08:24;986.426;;;16.25;79.5
13058;BME280;6595;49.578;11.012;2023-05-23T04:10:23;986.413;;;16.25;79.5
13058;BME280;6595;49.578;11.012;2023-05-23T04:12:23;986.403;;;16.21;79.8
13058;BME280;6595;49.578;11.012;2023-05-23T04:14:24;986.417;;;16.24;79.8
13058;BME280;6595;49.578;11.012;2023-05-23T04:16:23;986.479;;;16.28;79.8
13058;BME280;6595;49.578;11.012;2023-05-23T04:18:24;986.479;;;16.28;79.8
13058;BME280;6595;49.578;11.012;2023-05-23T04:20:24;986.515;;;16.32;79.7
13058;BME280;6595;49.578;11.012;2023-05-23T04:22:23;986.536;;;16.30;79.9
13058;BME280;6595;49.578;11.012;2023-05-23T04:24:24;986.631;;;16.31;79.8
13058;BME280;6595;49.578;11.012;2023-05-23T04:26:23;986.608;;;16.32;79.8
13058;BME280;6595;49.578;11.012;2023-05-23T04:28:25;986.572;;;16.38;79.7
13058;BME280;6595;49.578;11.012;2023-05-23T04:30:23;986.659;;;16.35;79.8
13058;BME280;6595;49.578;11.012;2023-05-23T04:32:23;986.648;;;16.38;79.7
13058;BME280;6595;49.578;11.012;2023-05-23T04:34:24;986.591;;;16.40;79.7
13058;BME280;6595;49.578;11.012;2023-05-23T04:36:24;986.600;;;16.45;79.6
13058;BME280;6595;49.578;11.012;2023-05-23T04:38:23;986.617;;;16.45;79.6
13058;BME280;6595;49.578;11.012;2023-05-23T04:40:24;986.653;;;16.47;79.7
13058;BME280;6595;49.578;11.012;2023-05-23T04:42:23;986.686;;;16.44;79.8
13058;BME280;6595;49.578;11.012;2023-05-23T04:44:24;986.686;;;16.44;79.8
13058;BME280;6595;49.578;11.012;2023-05-23T04:46:23;986.583;;;16.55;79.3
13058;BME280;6595;49.578;11.012;2023-05-23T04:48:23;986.651;;;16.54;79.4
13058;BME280;6595;49.578;11.012;2023-05-23T04:50:24;986.642;;;16.54;79.2
13058;BME280;6595;49.578;11.012;2023-05-23T04:52:23;986.720;;;16.58;79.2
13058;BME280;6595;49.578;11.012;2023-05-23T04:54:24;986.720;;;16.58;79.2
13058;BME280;6595;49.578;11.012;2023-05-23T04:56:23;986.732;;;16.62;78.9
13058;BME280;6595;49.578;11.012;2023-05-23T04:58:24;986.751;;;16.70;78.8
13058;BME280;6595;49.578;11.012;2023-05-23T05:00:23;986.774;;;16.78;78.3
13058;BME280;6595;49.578;11.012;2023-05-23T05:02:23;986.829;;;16.88;78.2
13058;BME280;6595;49.578;11.012;2023-05-23T05:04:24;986.852;;;16.91;78.0
13058;BME280;6595;49.578;11.012;2023-05-23T05:06:23;986.888;;;16.96;77.7
13058;BME280;6595;49.578;11.012;2023-05-23T05:08:23;986.864;;;17.08;77.3
13058;BME280;6595;49.578;11.012;2023-05-23T05:10:24;986.886;;;17.04;77.2
13058;BME280;6595;49.578;11.012;2023-05-23T05:12:23;986.873;;;17.01;77.3
13058;BME280;6595;49.578;11.012;2023-05-23T05:14:24;986.900;;;17.02;77.6
13058;BME280;6595;49.578;11.012;2023-05-23T05:16:23;986.910;;;17.04;77.3
13058;BME280;6595;49.578;11.012;2023-05-23T05:18:25;986.858;;;17.08;77.5
13058;BME280;6595;49.578;11.012;2023-05-23T05:20:24;986.886;;;17.09;77.4
13058;BME280;6595;49.578;11.012;2023-05-23T05:22:23;986.886;;;17.09;77.4
13058;BME280;6595;49.578;11.012;2023-05-23T05:24:23;986.860;;;17.14;77.4
13058;BME280;6595;49.578;11.012;2023-05-23T05:26:24;986.797;;;17.16;77.4
13058;BME280;6595;49.578;11.012;2023-05-23T05:28:23;986.914;;;17.22;77.1
13058;BME280;6595;49.578;11.012;2023-05-23T05:30:23;986.884;;;17.22;76.9
13058;BME280;6595;49.578;11.012;2023-05-23T05:32:24;986.950;;;17.18;77.2
13058;BME280;6595;49.578;11.012;2023-05-23T05:34:23;986.959;;;17.16;77.1
13058;BME280;6595;49.578;11.012;2023-05-23T05:36:23;987.019;;;17.14;77.0
13058;BME280;6595;49.578;11.012;2023-05-23T05:38:24;987.041;;;17.11;77.2
13058;BME280;6595;49.578;11.012;2023-05-23T05:40:23;986.963;;;17.19;77.1
13058;BME280;6595;49.578;11.012;2023-05-23T05:42:24;986.982;;;17.26;76.7
13058;BME280;6595;49.578;11.012;2023-05-23T05:44:23;986.953;;;17.35;76.7
13058;BME280;6595;49.578;11.012;2023-05-23T05:46:23;987.041;;;17.45;76.0
13058;BME280;6595;49.578;11.012;2023-05-23T05:48:24;987.029;;;17.50;76.0
13058;BME280;6595;49.578;11.012;2023-05-23T05:50:23;987.010;;;17.70;75.4
13058;BME280;6595;49.578;11.012;2023-05-23T05:52:24;987.070;;;17.83;75.0
13058;BME280;6595;49.578;11.012;2023-05-23T05:54:23;987.070;;;17.83;75.0
13058;BME280;6595;49.578;11.012;2023-05-23T05:56:23;987.113;;;17.84;74.6
13058;BME280;6595;49.578;11.012;2023-05-23T05:58:24;987.140;;;17.91;74.5
13058;BME280;6595;49.578;11.012;2023-05-23T06:00:23;987.115;;;18.04;73.6
13058;BME280;6595;49.578;11.012;2023-05-23T06:02:24;987.102;;;18.10;73.7
13058;BME280;6595;49.578;11.012;2023-05-23T06:04:24;987.191;;;18.25;73.2
13058;BME280;6595;49.578;11.012;2023-05-23T06:06:24;987.189;;;18.28;72.8
13058;BME280;6595;49.578;11.012;2023-05-23T06:08:23;987.188;;;18.31;72.4
13058;BME280;6595;49.578;11.012;2023-05-23T06:10:24;987.189;;;18.28;72.6
13058;BME280;6595;49.578;11.012;2023-05-23T06:12:23;987.195;;;18.48;72.4
13058;BME280;6595;49.578;11.012;2023-05-23T06:14:24;987.227;;;18.34;72.3
13058;BME280;6595;49.578;11.012;2023-05-23T06:16:24;987.247;;;18.33;72.0
13058;BME280;6595;49.578;11.012;2023-05-23T06:18:23;987.168;;;18.25;72.6
13058;BME280;6595;49.578;11.012;2023-05-23T06:20:23;987.207;;;18.25;72.1
13058;BME280;6595;49.578;11.012;2023-05-23T06:22:24;987.275;;;18.40;72.2
13058;BME280;6595;49.578;11.012;2023-05-23T06:24:23;987.216;;;18.37;72.2
13058;BME280;6595;49.578;11.012;2023-05-23T06:26:23;987.158;;;18.40;71.7
13058;BME280;6595;49.578;11.012;2023-05-23T06:28:23;987.243;;;18.40;71.6
13058;BME280;6595;49.578;11.012;2023-05-23T06:30:24;987.270;;;18.35;71.6
13058;BME280;6595;49.578;11.012;2023-05-23T06:32:23;987.346;;;18.38;71.6
13058;BME280;6595;49.578;11.012;2023-05-23T06:34:23;987.346;;;18.38;71.6
13058;BME280;6595;49.578;11.012;2023-05-23T06:36:24;987.346;;;18.38;71.6
13058;BME280;6595;49.578;11.012;2023-05-23T06:42:23;987.241;;;18.44;71.3
13058;BME280;6595;49.578;11.012;2023-05-23T06:44:24;987.250;;;18.43;71.2
13058;BME280;6595;49.578;11.012;2023-05-23T06:46:23;987.289;;;18.55;71.1
13058;BME280;6595;49.578;11.012;2023-05-23T06:48:24;987.289;;;18.55;71.1
13058;BME280;6595;49.578;11.012;2023-05-23T06:50:23;987.316;;;18.84;69.8
13058;BME280;6595;49.578;11.012;2023-05-23T06:52:24;987.390;;;18.95;69.6
13058;BME280;6595;49.578;11.012;2023-05-23T06:54:23;987.365;;;18.96;69.1
13058;BME280;6595;49.578;11.012;2023-05-23T06:56:23;987.446;;;18.88;69.3
13058;BME280;6595;49.578;11.012;2023-05-23T06:58:24;987.343;;;18.91;69.6
13058;BME280;6595;49.578;11.012;2023-05-23T07:00:23;987.432;;;18.91;69.2
13058;BME280;6595;49.578;11.012;2023-05-23T07:02:24;987.432;;;18.88;68.6
13058;BME280;6595;49.578;11.012;2023-05-23T07:04:23;987.470;;;18.91;68.8
13058;BME280;6595;49.578;11.012;2023-05-23T07:06:23;987.570;;;19.12;68.4
13058;BME280;6595;49.578;11.012;2023-05-23T07:08:24;987.580;;;19.10;68.5
13058;BME280;6595;49.578;11.012;2023-05-23T07:10:23;987.576;;;19.16;68.2
13058;BME280;6595;49.578;11.012;2023-05-23T07:12:24;987.573;;;19.09;67.8
13058;BME280;6595;49.578;11.012;2023-05-23T07:14:23;987.665;;;19.03;68.0
13058;BME280;6595;49.578;11.012;2023-05-23T07:16:24;987.645;;;18.94;67.9
13058;BME280;6595;49.578;11.012;2023-05-23T07:18:24;987.652;;;18.94;68.0
13058;BME280;6595;49.578;11.012;2023-05-23T07:20:23;987.637;;;18.69;68.8
13058;BME280;6595;49.578;11.012;2023-05-23T07:22:24;987.693;;;18.76;68.8
13058;BME280;6595;49.578;11.012;2023-05-23T07:24:24;987.585;;;18.74;69.3
13058;BME280;6595;49.578;11.012;2023-05-23T07:26:23;987.604;;;18.85;69.0
13058;BME280;6595;49.578;11.012;2023-05-23T07:28:24;987.636;;;18.85;69.2
13058;BME280;6595;49.578;11.012;2023-05-23T07:30:23;987.606;;;18.86;67.9
13058;BME280;6595;49.578;11.012;2023-05-23T07:32:23;987.673;;;18.92;67.9
13058;BME280;6595;49.578;11.012;2023-05-23T07:34:24;987.604;;;18.95;67.2
13058;BME280;6595;49.578;11.012;2023-05-23T07:36:23;987.708;;;18.95;67.3
13058;BME280;6595;49.578;11.012;2023-05-23T07:38:25;987.608;;;19.08;66.9
13058;BME280;6595;49.578;11.012;2023-05-23T07:40:23;987.612;;;19.12;66.3
13058;BME280;6595;49.578;11.012;2023-05-23T07:42:24;987.627;;;19.18;66.3
13058;BME280;6595;49.578;11.012;2023-05-23T07:44:24;987.703;;;19.23;65.6
13058;BME280;6595;49.578;11.012;2023-05-23T07:46:23;987.698;;;19.45;65.6
13058;BME280;6595;49.578;11.012;2023-05-23T07:48:24;987.609;;;19.49;64.8
13058;BME280;6595;49.578;11.012;2023-05-23T07:50:24;987.656;;;19.56;64.7
13058;BME280;6595;49.578;11.012;2023-05-23T07:52:24;987.631;;;19.76;64.3
13058;BME280;6595;49.578;11.012;2023-05-23T07:54:23;987.631;;;19.76;64.3
13058;BME280;6595;49.578;11.012;2023-05-23T07:56:23;987.743;;;19.77;63.5
13058;BME280;6595;49.578;11.012;2023-05-23T07:58:24;987.699;;;19.57;63.6
13058;BME280;6595;49.578;11.012;2023-05-23T08:00:23;987.744;;;19.48;63.6
13058;BME280;6595;49.578;11.012;2023-05-23T08:02:23;987.784;;;19.48;63.5
13058;BME280;6595;49.578;11.012;2023-05-23T08:04:23;987.715;;;19.49;62.4
13058;BME280;6595;49.578;11.012;2023-05-23T08:06:24;987.792;;;19.72;61.2
13058;BME280;6595;49.578;11.012;2023-05-23T08:08:23;987.721;;;19.77;60.7
13058;BME280;6595;49.578;11.012;2023-05-23T08:10:24;987.860;;;19.81;61.5
13058;BME280;6595;49.578;11.012;2023-05-23T08:12:23;987.834;;;19.90;62.0
13058;BME280;6595;49.578;11.012;2023-05-23T08:14:23;987.816;;;19.84;62.4
13058;BME280;6595;49.578;11.012;2023-05-23T08:16:24;987.763;;;19.87;62.8
13058;BME280;6595;49.578;11.012;2023-05-23T08:18:24;987.855;;;19.91;62.7
13058;BME280;6595;49.578;11.012;2023-05-23T08:20:23;987.883;;;19.88;62.7
13058;BME280;6595;49.578;11.012;2023-05-23T08:22:24;987.896;;;19.86;62.4
13058;BME280;6595;49.578;11.012;2023-05-23T08:24:24;987.921;;;19.76;62.2
13058;BME280;6595;49.578;11.012;2023-05-23T08:26:23;987.921;;;19.54;62.7
13058;BME280;6595;49.578;11.012;2023-05-23T08:28:24;987.929;;;19.72;62.9
13058;BME280;6595;49.578;11.012;2023-05-23T08:30:24;987.942;;;19.86;62.1
13058;BME280;6595;49.578;11.012;2023-05-23T08:32:24;987.930;;;19.98;62.1
13058;BME280;6595;49.578;11.012;2023-05-23T08:34:24;987.886;;;20.01;62.3
13058;BME280;6595;49.578;11.012;2023-05-23T08:36:23;988.014;;;20.03;61.5
13058;BME280;6595;49.578;11.012;2023-05-23T08:38:24;987.909;;;20.13;60.7
13058;BME280;6595;49.578;11.012;2023-05-23T08:40:25;987.924;;;20.20;60.7
13058;BME280;6595;49.578;11.012;2023-05-23T08:42:23;987.941;;;19.90;60.9
13058;BME280;6595;49.578;11.012;2023-05-23T08:44:23;987.948;;;20.01;61.2
13058;BME280;6595;49.578;11.012;2023-05-23T08:46:24;987.965;;;20.06;60.7
13058;BME280;6595;49.578;11.012;2023-05-23T08:48:25;988.003;;;19.96;59.7
13058;BME280;6595;49.578;11.012;2023-05-23T08:50:25;988.059;;;19.87;60.0
13058;BME280;6595;49.578;11.012;2023-05-23T08:52:24;987.977;;;20.00;60.3
13058;BME280;6595;49.578;11.012;2023-05-23T08:54:23;988.089;;;20.04;60.2
13058;BME280;6595;49.578;11.012;2023-05-23T08:56:23;988.064;;;20.37;58.9
13058;BME280;6595;49.578;11.012;2023-05-23T08:58:24;988.081;;;20.41;59.0
13058;BME280;6595;49.578;11.012;2023-05-23T09:00:24;988.141;;;20.62;56.3
13058;BME280;6595;49.578;11.012;2023-05-23T09:02:24;988.047;;;20.83;56.5
13058;BME280;6595;49.578;11.012;2023-05-23T09:04:23;988.047;;;20.83;56.5
13058;BME280;6595;49.578;11.012;2023-05-23T09:06:24;988.104;;;20.78;56.9
13058;BME280;6595;49.578;11.012;2023-05-23T09:08:24;988.154;;;20.52;58.1
13058;BME280;6595;49.578;11.012;2023-05-23T09:10:23;988.177;;;20.47;59.4
13058;BME280;6595;49.578;11.012;2023-05-23T09:12:24;988.122;;;20.41;58.6
13058;BME280;6595;49.578;11.012;2023-05-23T09:14:23;988.101;;;20.31;58.4
13058;BME280;6595;49.578;11.012;2023-05-23T09:16:31;988.286;;;20.72;57.5
13058;BME280;6595;49.578;11.012;2023-05-23T09:18:24;988.286;;;20.72;57.5
13058;BME280;6595;49.578;11.012;2023-05-23T09:20:23;988.307;;;20.74;56.9
13058;BME280;6595;49.578;11.012;2023-05-23T09:22:24;988.341;;;20.89;57.0
13058;BME280;6595;49.578;11.012;2023-05-23T09:24:32;988.344;;;20.82;55.6
13058;BME280;6595;49.578;11.012;2023-05-23T09:26:24;988.295;;;20.78;55.8
13058;BME280;6595;49.578;11.012;2023-05-23T09:28:23;988.297;;;20.72;55.8
13058;BME280;6595;49.578;11.012;2023-05-23T09:30:23;988.320;;;20.41;56.7
13058;BME280;6595;49.578;11.012;2023-05-23T09:32:24;988.337;;;20.44;57.0
13058;BME280;6595;49.578;11.012;2023-05-23T09:34:23;988.360;;;20.68;57.2
13058;BME280;6595;49.578;11.012;2023-05-23T09:36:26;988.408;;;20.81;55.8
13058;BME280;6595;49.578;11.012;2023-05-23T09:38:24;988.349;;;20.72;56.3
13058;BME280;6595;49.578;11.012;2023-05-23T09:40:28;988.377;;;20.86;55.6
13058;BME280;6595;49.578;11.012;2023-05-23T09:42:24;988.303;;;20.92;55.1
13058;BME280;6595;49.578;11.012;2023-05-23T09:44:23;988.534;;;20.95;55.0
13058;BME280;6595;49.578;11.012;2023-05-23T09:46:27;988.437;;;20.92;54.5
13058;BME280;6595;49.578;11.012;2023-05-23T09:48:27;988.586;;;20.95;54.0
13058;BME280;6595;49.578;11.012;2023-05-23T09:50:30;988.578;;;20.89;54.5
13058;BME280;6595;49.578;11.012;2023-05-23T09:52:24;988.609;;;20.95;54.4
13058;BME280;6595;49.578;11.012;2023-05-23T09:54:23;988.565;;;20.59;54.1
13058;BME280;6595;49.578;11.012;2023-05-23T09:56:24;988.644;;;20.85;55.2
13058;BME280;6595;49.578;11.012;2023-05-23T09:58:26;988.556;;;20.78;54.0
13058;BME280;6595;49.578;11.012;2023-05-23T10:00:24;988.589;;;20.47;54.7
13058;BME280;6595;49.578;11.012;2023-05-23T10:02:53;988.554;;;20.44;55.1
13058;BME280;6595;49.578;11.012;2023-05-23T10:04:24;988.601;;;20.52;54.7
13058;BME280;6595;49.578;11.012;2023-05-23T10:06:25;988.462;;;20.61;54.8
13058;BME280;6595;49.578;11.012;2023-05-23T10:08:26;988.594;;;20.49;54.0
13058;BME280;6595;49.578;11.012;2023-05-23T10:10:24;988.575;;;20.32;54.4
13058;BME280;6595;49.578;11.012;2023-05-23T10:12:41;988.545;;;20.23;54.8
13058;BME280;6595;49.578;11.012;2023-05-23T10:14:24;988.541;;;20.20;54.6
13058;BME280;6595;49.578;11.012;2023-05-23T10:16:27;988.587;;;20.37;54.2
13058;BME280;6595;49.578;11.012;2023-05-23T10:18:25;988.535;;;20.59;54.2
13058;BME280;6595;49.578;11.012;2023-05-23T10:20:24;988.505;;;20.58;53.2
13058;BME280;6595;49.578;11.012;2023-05-23T10:22:24;988.530;;;20.42;52.8
13058;BME280;6595;49.578;11.012;2023-05-23T10:24:24;988.479;;;20.61;53.3
13058;BME280;6595;49.578;11.012;2023-05-23T10:26:23;988.544;;;20.85;53.6
13058;BME280;6595;49.578;11.012;2023-05-23T10:28:24;988.602;;;20.75;53.7
13058;BME280;6595;49.578;11.012;2023-05-23T10:30:24;988.733;;;20.83;53.0
13058;BME280;6595;49.578;11.012;2023-05-23T10:32:24;988.744;;;20.92;52.0
13058;BME280;6595;49.578;11.012;2023-05-23T10:34:28;988.790;;;20.89;51.8
13058;BME280;6595;49.578;11.012;2023-05-23T10:36:29;988.731;;;20.61;52.1
13058;BME280;6595;49.578;11.012;2023-05-23T10:38:31;988.807;;;20.56;52.5
13058;BME280;6595;49.578;11.012;2023-05-23T10:40:32;988.710;;;20.75;52.1
13058;BME280;6595;49.578;11.012;2023-05-23T10:42:33;988.692;;;20.81;52.1
13058;BME280;6595;49.578;11.012;2023-05-23T10:44:26;988.802;;;20.92;51.8
13058;BME280;6595;49.578;11.012;2023-05-23T10:48:31;988.834;;;20.49;52.4
13058;BME280;6595;49.578;11.012;2023-05-23T10:50:32;988.878;;;20.44;52.7
13058;BME280;6595;49.578;11.012;2023-05-23T10:52:24;988.871;;;20.62;51.8
13058;BME280;6595;49.578;11.012;2023-05-23T10:54:23;988.844;;;20.71;51.5
13058;BME280;6595;49.578;11.012;2023-05-23T10:56:23;988.807;;;20.62;51.3
13058;BME280;6595;49.578;11.012;2023-05-23T10:58:24;988.817;;;20.29;52.1